createdAt,value
2022-11-29T00:04:51.399Z,101310.97
2022-11-29T00:14:54.360Z,101322.16
2022-11-29T00:24:58.744Z,101332.22
2022-11-29T00:35:06.612Z,101336.47
2022-11-29T00:45:13.770Z,101331.47
2022-11-29T00:55:16.787Z,101327.59
2022-11-29T01:05:21.185Z,101321.81
2022-11-29T01:15:24.168Z,101328.00
2022-11-29T01:25:29.382Z,101342.72
2022-11-29T01:35:32.323Z,101350.44
2022-11-29T01:45:39.355Z,101352.75
2022-11-29T01:55:47.706Z,101368.59
2022-11-29T02:05:54.309Z,101386.38
2022-11-29T02:16:04.594Z,101394.13
2022-11-29T02:26:19.670Z,101401.06
2022-11-29T02:36:41.159Z,101385.19
2022-11-29T02:46:58.638Z,101387.16
2022-11-29T02:57:09.709Z,101395.66
2022-11-29T03:07:21.058Z,101414.19
2022-11-29T03:17:33.841Z,101418.06
2022-11-29T03:27:42.513Z,101425.03
2022-11-29T03:37:55.990Z,101437.38
2022-11-29T03:48:05.934Z,101450.13
2022-11-29T03:58:28.338Z,101458.22
2022-11-29T04:08:58.684Z,101463.63
2022-11-29T04:19:43.406Z,101470.94
2022-11-29T04:30:04.981Z,101475.19
2022-11-29T04:40:27.412Z,101479.00
2022-11-29T04:50:47.142Z,101482.81
2022-11-29T05:01:01.449Z,101490.53
2022-11-29T05:11:10.134Z,101509.00
2022-11-29T05:21:24.671Z,101520.19
2022-11-29T05:31:42.586Z,101542.59
2022-11-29T05:41:59.841Z,101552.25
2022-11-29T05:52:20.183Z,101566.59
2022-11-29T06:02:37.145Z,101566.97
2022-11-29T06:12:41.948Z,101587.44
2022-11-29T06:23:15.878Z,101596.38
2022-11-29T06:33:23.809Z,101611.41
2022-11-29T06:43:28.907Z,101634.25
2022-11-29T06:53:39.863Z,101651.31
2022-11-29T07:04:30.414Z,101654.03
2022-11-29T07:14:35.551Z,101664.13
2022-11-29T07:24:48.326Z,101672.28
2022-11-29T07:35:02.962Z,101681.59
2022-11-29T07:45:17.236Z,101708.63
2022-11-29T07:55:23.743Z,101698.25
2022-11-29T08:05:27.156Z,101707.94
2022-11-29T08:15:31.633Z,101710.28
2022-11-29T08:25:34.637Z,101714.97
2022-11-29T08:35:39.958Z,101732.38
2022-11-29T08:45:42.984Z,101727.72
2022-11-29T08:55:47.342Z,101742.84
2022-11-29T09:05:50.496Z,101752.94
2022-11-29T09:15:54.869Z,101764.97
2022-11-29T09:25:57.802Z,101772.38
2022-11-29T09:36:02.830Z,101777.81
2022-11-29T09:46:16.086Z,101797.19
2022-11-29T09:56:29.408Z,101797.22
2022-11-29T10:06:38.839Z,101811.16
2022-11-29T10:16:47.910Z,101804.97
2022-11-29T10:26:51.004Z,101801.47
2022-11-29T10:36:59.556Z,101797.19
2022-11-29T10:47:10.651Z,101801.84
2022-11-29T10:57:17.827Z,101813.09
2022-11-29T11:07:25.104Z,101807.28
2022-11-29T11:17:33.021Z,101810.00
2022-11-29T11:27:39.821Z,101809.59
2022-11-29T11:37:57.282Z,101819.28
2022-11-29T11:48:03.419Z,101827.78
2022-11-29T11:58:20.346Z,101838.25
2022-11-29T12:08:25.050Z,101853.38
2022-11-29T12:18:39.133Z,101850.28
2022-11-29T12:28:44.081Z,101866.53
2022-11-29T12:39:12.791Z,101840.97
2022-11-29T12:49:24.791Z,101887.84
2022-11-29T12:59:43.106Z,101887.47
2022-11-29T13:10:17.848Z,101888.25
2022-11-29T13:20:33.398Z,101895.25
2022-11-29T13:30:36.678Z,101899.91
2022-11-29T13:40:49.822Z,101901.06
2022-11-29T13:50:52.979Z,101902.22
2022-11-29T14:01:01.610Z,101919.66
2022-11-29T14:11:10.200Z,101913.09
2022-11-29T14:21:14.852Z,101915.81
2022-11-29T14:31:52.400Z,101929.75
2022-11-29T14:42:06.305Z,101927.41
2022-11-29T14:52:18.329Z,101925.09
2022-11-29T15:02:35.529Z,101933.25
2022-11-29T15:12:39.489Z,101928.59
2022-11-29T15:22:53.279Z,101927.44
2022-11-29T15:32:57.125Z,101945.69
2022-11-29T15:43:12.598Z,101954.59
2022-11-29T15:53:20.872Z,101954.56
2022-11-29T16:03:30.218Z,101949.91
2022-11-29T16:13:38.636Z,101957.25
2022-11-29T16:23:43.419Z,101964.25
2022-11-29T16:33:49.065Z,101959.97
2022-11-29T16:43:56.179Z,101978.22
2022-11-29T16:54:20.857Z,101989.03
2022-11-29T17:04:25.535Z,101997.16
2022-11-29T17:14:28.822Z,101995.22
2022-11-29T17:24:33.256Z,101992.53
2022-11-29T17:34:36.166Z,101999.50
2022-11-29T17:44:41.151Z,102006.47
2022-11-29T17:54:44.247Z,102009.50
2022-11-29T18:04:48.569Z,102016.44
2022-11-29T18:14:51.560Z,102020.31
2022-11-29T18:25:15.843Z,102023.41
2022-11-29T18:35:18.876Z,102036.88
2022-11-29T18:45:23.224Z,102043.84
2022-11-29T18:55:26.245Z,102045.84
2022-11-29T19:05:30.617Z,102057.13
2022-11-29T19:15:33.640Z,102064.50
2022-11-29T19:25:37.993Z,102071.88
2022-11-29T19:35:40.964Z,102066.88
2022-11-29T19:45:45.314Z,102073.84
2022-11-29T19:55:48.364Z,102069.97
2022-11-29T20:05:56.692Z,102073.44
2022-11-29T20:16:02.879Z,102077.69
2022-11-29T20:26:08.678Z,102087.34
2022-11-29T20:36:23.322Z,102087.34
2022-11-29T20:46:28.888Z,102098.53
2022-11-29T20:56:31.855Z,102105.50
2022-11-29T21:06:39.646Z,102110.88
2022-11-29T21:16:43.054Z,102103.50
2022-11-29T21:26:52.367Z,102110.03
2022-11-29T21:36:58.033Z,102112.38
2022-11-29T21:47:02.369Z,102113.16
2022-11-29T21:57:05.672Z,102113.97
2022-11-29T22:07:10.199Z,102114.34
2022-11-29T22:17:13.144Z,102120.22
2022-11-29T22:27:18.463Z,102124.88
2022-11-29T22:37:21.466Z,102117.91
2022-11-29T22:47:25.779Z,102121.00
2022-11-29T22:57:28.705Z,102122.97
2022-11-29T23:07:33.078Z,102134.56
2022-11-29T23:17:36.194Z,102134.19
2022-11-29T23:27:40.514Z,102135.72
2022-11-29T23:37:43.549Z,102139.63
2022-11-29T23:47:47.913Z,102132.66
2022-11-29T23:57:51.638Z,102138.88
